createdAt,value
2022-09-28T06:05:07.701Z,120.00
2022-09-28T06:06:08.407Z,128.00
2022-09-28T06:07:07.639Z,136.00
2022-09-28T06:08:07.702Z,140.00
2022-09-28T06:09:08.408Z,140.00
2022-09-28T06:10:07.561Z,136.00
2022-09-28T06:11:07.538Z,160.00
2022-09-28T06:12:07.515Z,160.00
2022-09-28T06:13:07.522Z,168.00
2022-09-28T06:14:07.466Z,184.00
2022-09-28T06:15:07.439Z,216.00
2022-09-28T06:16:07.417Z,228.00
2022-09-28T06:17:07.440Z,224.00
2022-09-28T06:18:07.401Z,224.00
2022-09-28T06:19:07.352Z,244.00
2022-09-28T06:20:07.326Z,244.00
2022-09-28T06:21:07.384Z,236.00
2022-09-28T06:22:07.284Z,260.00
2022-09-28T06:23:07.346Z,260.00
2022-09-28T06:24:07.239Z,284.00
2022-09-28T06:25:07.248Z,304.00
2022-09-28T06:26:07.197Z,312.00
2022-09-28T06:27:07.185Z,344.00
2022-09-28T06:28:07.153Z,340.00
2022-09-28T06:29:07.153Z,336.00
2022-09-28T06:30:07.208Z,340.00
2022-09-28T06:31:07.211Z,340.00
2022-09-28T06:32:07.055Z,344.00
2022-09-28T06:33:07.045Z,340.00
2022-09-28T06:34:07.013Z,336.00
2022-09-28T06:35:06.990Z,328.00
2022-09-28T06:36:07.000Z,312.00
2022-09-28T06:37:06.965Z,288.00
2022-09-28T06:38:06.974Z,252.00
2022-09-28T06:39:06.936Z,228.00
2022-09-28T06:40:06.880Z,232.00
2022-09-28T06:41:06.889Z,240.00
2022-09-28T06:42:06.847Z,256.00
2022-09-28T06:43:06.856Z,268.00
2022-09-28T06:44:06.800Z,264.00
2022-09-28T06:45:06.766Z,256.00
2022-09-28T06:46:06.813Z,260.00
2022-09-28T06:47:06.752Z,264.00
2022-09-28T06:48:06.701Z,288.00
2022-09-28T06:49:06.678Z,304.00
2022-09-28T06:50:21.422Z,336.00
2022-09-28T06:51:06.630Z,344.00
2022-09-28T06:52:06.610Z,356.00
2022-09-28T08:13:06.410Z,916.00
2022-09-28T08:14:03.730Z,900.00
2022-09-28T08:15:03.708Z,1024.00
2022-09-28T08:16:03.688Z,892.00
2022-09-28T08:17:03.698Z,856.00
2022-09-28T08:18:03.647Z,968.00
2022-09-28T08:19:04.250Z,1132.00
2022-09-28T08:20:03.597Z,1028.00
2022-09-28T08:21:03.574Z,1092.00
2022-09-28T08:22:03.574Z,1100.00
2022-09-28T08:23:03.526Z,1124.00
2022-09-28T08:24:03.566Z,1112.00
2022-09-28T08:25:03.487Z,1228.00
2022-09-28T08:26:03.473Z,1352.00
2022-09-28T08:27:03.446Z,1408.00
2022-09-28T08:28:03.449Z,1388.00
2022-09-28T08:29:03.409Z,1504.00
2022-09-28T08:30:03.382Z,1596.00
2022-09-28T08:31:03.400Z,1420.00
2022-09-28T08:32:03.360Z,1336.00
2022-09-28T08:33:03.317Z,1480.00
2022-09-28T08:34:03.295Z,1280.00
2022-09-28T08:35:03.272Z,1276.00
2022-09-28T08:36:03.252Z,1096.00
2022-09-28T08:37:03.227Z,932.00
2022-09-28T08:38:03.232Z,896.00
2022-09-28T08:39:03.195Z,856.00
2022-09-28T08:40:03.185Z,948.00
2022-09-28T08:41:03.281Z,1028.00
2022-09-28T08:42:03.137Z,1120.00
2022-09-28T08:43:03.106Z,1212.00
2022-09-28T08:44:03.075Z,1236.00
2022-09-28T08:45:03.056Z,1188.00
2022-09-28T08:46:03.092Z,1224.00
2022-09-28T08:47:03.040Z,1268.00
2022-09-28T08:48:02.989Z,1216.00
2022-09-28T08:50:02.958Z,1408.00
2022-09-28T08:51:03.003Z,1444.00
2022-09-28T08:52:02.912Z,1592.00
2022-09-28T08:53:02.914Z,1716.00
2022-09-28T08:54:03.153Z,1732.00
2022-09-28T08:55:02.851Z,1820.00
2022-09-28T08:56:02.824Z,1964.00
2022-09-28T08:57:02.817Z,1804.00
2022-09-28T08:58:02.907Z,1280.00
2022-09-28T08:59:02.756Z,1160.00
2022-09-28T09:00:02.760Z,1044.00
2022-09-28T09:01:02.791Z,1112.00
2022-09-28T09:02:02.767Z,1352.00
2022-09-28T09:03:02.693Z,1388.00
2022-09-28T09:04:02.657Z,1708.00
2022-09-28T09:05:02.634Z,1824.00
2022-09-28T09:06:02.633Z,1724.00
2022-09-28T09:07:02.604Z,1444.00
2022-09-28T09:08:02.580Z,1244.00
2022-09-28T09:09:02.547Z,1132.00
2022-09-28T09:10:02.527Z,1224.00
2022-09-28T09:11:02.509Z,1716.00
2022-09-28T09:12:02.513Z,1800.00
2022-09-28T09:13:02.463Z,1768.00
2022-09-28T09:14:02.466Z,1640.00
2022-09-28T09:15:02.424Z,1712.00
2022-09-28T09:16:02.399Z,1924.00
2022-09-28T09:17:02.480Z,2000.00
2022-09-28T09:18:02.357Z,2028.00
2022-09-28T09:19:02.341Z,2204.00
2022-09-28T09:20:02.339Z,2280.00
2022-09-28T09:21:02.300Z,2276.00
2022-09-28T09:22:02.288Z,2040.00
2022-09-28T09:23:02.259Z,1828.00
2022-09-28T09:24:02.257Z,1836.00
2022-09-28T09:25:02.233Z,1848.00
2022-09-28T09:26:02.182Z,1964.00
2022-09-28T09:27:02.178Z,2164.00
2022-09-28T09:28:02.204Z,2464.00
2022-09-28T09:29:02.133Z,1992.00
2022-09-28T09:30:02.129Z,1844.00
2022-09-28T09:31:02.145Z,2484.00
2022-09-28T09:32:02.066Z,1980.00
2022-09-28T09:33:02.046Z,1980.00
2022-09-28T09:34:02.030Z,2352.00
2022-09-28T09:35:02.004Z,1856.00
2022-09-28T09:36:02.006Z,2048.00
2022-09-28T09:37:01.971Z,2240.00
2022-09-28T09:38:01.953Z,1756.00
2022-09-28T09:39:01.928Z,1532.00
2022-09-28T09:40:01.904Z,1272.00
2022-09-28T09:41:01.993Z,1156.00
2022-09-28T09:42:02.002Z,1152.00
2022-09-28T09:43:01.838Z,1248.00
2022-09-28T09:44:01.856Z,1220.00
2022-09-28T09:45:01.820Z,1292.00
2022-09-28T09:46:01.887Z,1408.00
2022-09-28T09:47:01.754Z,1640.00
2022-09-28T09:48:01.737Z,1644.00
2022-09-28T09:49:01.735Z,1548.00
2022-09-28T09:50:05.319Z,1624.00
2022-09-28T09:51:01.694Z,1420.00
2022-09-28T09:52:01.655Z,1288.00
2022-09-28T09:53:01.636Z,1336.00
2022-09-28T09:54:01.656Z,1552.00
2022-09-28T09:55:01.587Z,1552.00
2022-09-28T09:56:01.571Z,1396.00
2022-09-28T09:57:01.553Z,1108.00
2022-09-28T09:58:01.531Z,1248.00
2022-09-28T09:59:01.532Z,1504.00
2022-09-28T10:00:01.498Z,1676.00
2022-09-28T10:01:01.507Z,1916.00
2022-09-28T10:02:01.501Z,2100.00
2022-09-28T10:03:01.548Z,1516.00
2022-09-28T10:04:01.413Z,1012.00
2022-09-28T10:05:01.393Z,936.00
2022-09-28T10:06:01.489Z,984.00
2022-09-28T10:07:01.345Z,1036.00
2022-09-28T10:08:01.333Z,1304.00
2022-09-28T10:09:01.341Z,1580.00
2022-09-28T10:10:01.285Z,1740.00
2022-09-28T10:11:01.291Z,2144.00
2022-09-28T10:12:01.253Z,2044.00
2022-09-28T10:13:01.232Z,2060.00
2022-09-28T10:14:01.202Z,2212.00
2022-09-28T10:15:01.180Z,2612.00
2022-09-28T10:16:01.181Z,3648.00
2022-09-28T10:17:01.213Z,4440.00
2022-09-28T10:18:01.141Z,4044.00
2022-09-28T10:19:01.102Z,3276.00
2022-09-28T10:20:01.121Z,2072.00
2022-09-28T10:21:01.091Z,1412.00
2022-09-28T10:22:01.061Z,1216.00
2022-09-28T10:23:01.023Z,1308.00
2022-09-28T10:24:00.998Z,1468.00
2022-09-28T10:25:00.985Z,1744.00
2022-09-28T10:26:00.958Z,4432.00
2022-09-28T10:27:01.176Z,2016.00
2022-09-28T10:28:00.923Z,2044.00
2022-09-28T10:29:00.908Z,2260.00
2022-09-28T10:30:00.884Z,2872.00
2022-09-28T10:31:00.946Z,3216.00
2022-09-28T10:32:00.848Z,1544.00
2022-09-28T10:33:00.867Z,1352.00
2022-09-28T10:34:00.801Z,1640.00
2022-09-28T10:35:00.785Z,1556.00
2022-09-28T10:36:00.764Z,1992.00
2022-09-28T10:37:00.778Z,1400.00
2022-09-28T10:38:00.738Z,1220.00
2022-09-28T10:39:00.717Z,1060.00
2022-09-28T10:40:00.702Z,1096.00
2022-09-28T10:41:00.757Z,936.00
2022-09-28T10:42:00.643Z,604.00
2022-09-28T10:43:00.624Z,564.00
2022-09-28T10:44:00.644Z,620.00
2022-09-28T10:45:00.582Z,740.00
2022-09-28T10:46:00.625Z,808.00
2022-09-28T10:47:00.548Z,1000.00
2022-09-28T10:48:00.534Z,1076.00
2022-09-28T10:49:01.224Z,1172.00
2022-09-28T10:50:00.486Z,1288.00
2022-09-28T10:51:00.464Z,1844.00
2022-09-28T10:52:00.480Z,1780.00
2022-09-28T10:53:00.426Z,1596.00
2022-09-28T10:54:00.407Z,1244.00
2022-09-28T10:55:00.760Z,792.00
2022-09-28T10:56:00.386Z,836.00
2022-09-28T10:57:00.346Z,940.00
2022-09-28T10:58:00.321Z,1040.00
2022-09-28T10:59:00.350Z,1160.00
2022-09-28T11:00:00.312Z,1276.00
2022-09-28T11:01:00.330Z,1332.00
2022-09-28T11:02:00.331Z,1436.00
2022-09-28T11:03:00.336Z,1624.00
2022-09-28T11:04:00.229Z,1664.00
2022-09-28T11:05:00.255Z,2968.00
2022-09-28T11:06:00.181Z,5460.00
2022-09-28T11:08:00.131Z,6236.00
2022-09-28T11:09:00.113Z,4828.00
2022-09-28T11:10:00.106Z,6156.00
2022-09-28T11:11:00.098Z,6132.00
2022-09-28T11:12:00.043Z,6192.00
2022-09-28T11:13:00.029Z,5884.00
2022-09-28T11:14:00.009Z,3340.00
2022-09-28T11:14:59.989Z,2844.00
2022-09-28T11:15:59.960Z,5692.00
2022-09-28T11:17:00.005Z,3048.00
2022-09-28T11:17:59.959Z,3260.00
2022-09-28T11:18:59.916Z,5396.00
2022-09-28T11:19:59.897Z,4120.00
2022-09-28T11:20:59.881Z,6048.00
2022-09-28T11:21:59.884Z,1892.00
2022-09-28T11:22:59.890Z,1436.00
2022-09-28T11:23:59.824Z,1132.00
2022-09-28T11:24:59.805Z,988.00
2022-09-28T11:25:59.787Z,1020.00
2022-09-28T11:26:59.762Z,1028.00
2022-09-28T11:27:59.775Z,932.00
2022-09-28T11:28:59.759Z,768.00
2022-09-28T11:29:59.713Z,720.00
2022-09-28T11:30:59.734Z,1008.00
2022-09-28T11:31:59.675Z,996.00
2022-09-28T11:32:59.684Z,1076.00
2022-09-28T11:33:59.636Z,1168.00
2022-09-28T11:35:00.384Z,1380.00
2022-09-28T11:35:59.603Z,1348.00
2022-09-28T11:37:01.697Z,1796.00
2022-09-28T11:37:59.589Z,2032.00
2022-09-28T11:38:59.546Z,1820.00
2022-09-28T11:39:59.523Z,1680.00
2022-09-28T11:40:59.572Z,1604.00
2022-09-28T11:41:59.510Z,1360.00
2022-09-28T11:42:59.519Z,1336.00
2022-09-28T11:43:59.539Z,1228.00
2022-09-28T11:44:59.436Z,1260.00
2022-09-28T11:45:59.455Z,1380.00
2022-09-28T11:46:59.411Z,1324.00
2022-09-28T11:47:59.377Z,1076.00
2022-09-28T11:48:59.408Z,800.00
2022-09-28T11:49:59.350Z,684.00
2022-09-28T11:50:59.315Z,816.00
2022-09-28T11:51:59.298Z,1028.00
2022-09-28T11:52:59.280Z,1080.00
2022-09-28T11:53:59.267Z,1144.00
2022-09-28T11:54:59.261Z,1428.00
2022-09-28T11:55:59.226Z,2760.00
2022-09-28T11:56:59.198Z,3792.00
2022-09-28T11:57:59.184Z,2508.00
2022-09-28T11:58:59.159Z,2584.00
2022-09-28T11:59:59.166Z,2228.00
2022-09-28T12:00:59.125Z,2188.00
2022-09-28T12:01:59.189Z,2216.00
2022-09-28T12:02:59.201Z,3908.00
2022-09-28T12:03:59.069Z,2588.00
2022-09-28T12:04:59.059Z,4440.00
2022-09-28T12:05:59.069Z,3524.00
2022-09-28T12:06:59.047Z,2716.00
2022-09-28T12:07:59.012Z,4136.00
2022-09-28T12:08:59.040Z,4364.00
2022-09-28T12:09:59.114Z,3396.00
2022-09-28T12:10:58.930Z,4492.00
2022-09-28T12:11:58.916Z,3792.00
2022-09-28T12:12:58.934Z,1856.00
2022-09-28T15:58:44.698Z,100.00
2022-09-28T15:59:44.462Z,108.00
2022-09-28T16:00:44.498Z,112.00
2022-09-28T16:01:44.530Z,116.00
2022-09-28T16:02:44.424Z,124.00
2022-09-28T16:10:00.192Z,100.00
2022-09-28T16:10:59.167Z,92.00
2022-09-28T16:11:59.137Z,88.00
2022-09-28T16:12:59.679Z,80.00
2022-09-28T16:13:59.202Z,80.00
2022-09-28T16:14:59.063Z,80.00
2022-09-28T16:15:59.091Z,72.00
2022-09-28T16:16:59.042Z,72.00
2022-09-28T16:17:59.005Z,64.00
2022-09-28T16:18:59.677Z,60.00
2022-09-28T16:19:58.985Z,56.00
2022-09-28T16:20:58.947Z,52.00
2022-09-28T16:21:58.927Z,48.00
2022-09-28T16:22:58.897Z,44.00
2022-09-28T16:23:58.875Z,44.00
2022-09-28T16:24:58.869Z,36.00
2022-09-28T16:25:58.855Z,36.00
2022-09-28T16:26:58.810Z,40.00
2022-09-28T16:27:58.785Z,40.00
2022-09-28T16:28:58.788Z,40.00
2022-09-28T16:29:58.750Z,40.00
2022-09-28T16:30:58.783Z,44.00
2022-09-28T16:31:58.698Z,44.00
2022-09-28T16:33:01.613Z,48.00
2022-09-28T16:33:59.191Z,48.00
2022-09-28T16:34:58.683Z,48.00
2022-09-28T16:35:58.616Z,48.00
2022-09-28T16:36:59.117Z,48.00
2022-09-28T16:37:58.593Z,48.00
2022-09-28T16:38:59.151Z,48.00
2022-09-28T16:46:22.570Z,32.00
2022-09-28T16:47:22.451Z,28.00
2022-09-28T16:48:22.456Z,28.00
2022-09-28T16:49:22.432Z,28.00
2022-09-28T16:50:22.408Z,24.00
2022-09-28T16:51:22.374Z,24.00
2022-09-28T16:52:22.339Z,28.00
2022-09-28T16:53:24.363Z,24.00
2022-09-28T16:54:22.309Z,20.00
2022-09-28T18:58:07.580Z,0.00
2022-09-28T18:59:11.765Z,0.00
2022-09-28T19:00:07.104Z,0.00
2022-09-28T19:01:28.978Z,0.00
2022-09-28T19:02:07.167Z,0.00
2022-09-28T19:03:07.174Z,0.00
2022-09-28T19:04:07.051Z,0.00
2022-09-28T19:05:07.007Z,0.00
2022-09-28T19:06:06.996Z,0.00
2022-09-28T19:07:06.964Z,0.00
2022-09-28T19:08:06.929Z,0.00
2022-09-28T19:09:06.920Z,0.00
2022-09-28T19:10:06.889Z,0.00
2022-09-28T19:11:06.899Z,0.00
2022-09-28T19:12:06.864Z,0.00
2022-09-28T19:13:06.829Z,0.00
2022-09-28T19:14:06.799Z,0.00
2022-09-28T19:15:06.785Z,0.00
2022-09-28T19:17:48.945Z,0.00
2022-09-28T19:22:12.933Z,0.00
2022-09-28T19:24:54.965Z,0.00
2022-09-28T19:25:54.941Z,0.00
2022-09-28T19:26:54.899Z,0.00
2022-09-28T19:27:54.872Z,0.00
2022-09-28T19:28:54.857Z,0.00
2022-09-28T19:29:54.851Z,0.00
2022-09-28T19:30:54.924Z,0.00
2022-09-28T19:31:54.778Z,0.00
2022-09-28T19:32:54.755Z,0.00
2022-09-28T19:33:54.762Z,0.00
2022-09-28T19:34:54.715Z,0.00
2022-09-28T19:35:54.694Z,0.00
2022-09-28T19:36:54.658Z,0.00
2022-09-28T19:37:54.639Z,0.00
2022-09-28T19:38:54.642Z,0.00
2022-09-28T19:39:54.623Z,0.00
2022-09-28T19:40:56.500Z,0.00
2022-09-28T19:41:54.584Z,0.00
2022-09-28T19:42:54.525Z,0.00
2022-09-28T19:43:54.528Z,0.00
2022-09-28T19:44:54.537Z,0.00
2022-09-28T19:45:54.539Z,0.00
2022-09-28T19:46:54.456Z,0.00
2022-09-28T19:47:58.750Z,0.00
2022-09-28T19:48:54.389Z,0.00
2022-09-28T19:49:54.378Z,0.00
2022-09-28T19:50:54.379Z,0.00
2022-09-28T19:52:15.464Z,0.00
2022-09-28T19:52:54.313Z,0.00
2022-09-28T19:53:54.296Z,0.00
2022-09-28T19:54:54.294Z,0.00
2022-09-28T19:55:54.246Z,0.00
2022-09-28T19:56:54.246Z,0.00
2022-09-28T19:57:54.287Z,0.00
2022-09-28T19:58:54.185Z,0.00
2022-09-28T20:01:36.538Z,0.00
2022-09-28T20:02:36.547Z,0.00
2022-09-28T20:03:36.409Z,0.00
2022-09-28T20:04:36.368Z,0.00
2022-09-28T20:05:36.370Z,0.00
2022-09-28T20:06:36.330Z,0.00
2022-09-28T20:07:36.579Z,0.00
2022-09-28T20:08:36.651Z,0.00
2022-09-28T20:09:36.259Z,0.00
2022-09-28T20:10:36.233Z,0.00
2022-09-28T20:11:36.214Z,0.00
2022-09-28T20:12:36.191Z,0.00
2022-09-28T20:13:36.191Z,0.00
2022-09-28T20:14:39.463Z,0.00
2022-09-28T20:15:36.259Z,0.00
2022-09-28T20:16:36.103Z,0.00
2022-09-28T20:17:36.080Z,0.00
2022-09-28T20:18:36.064Z,0.00
2022-09-28T20:19:36.108Z,0.00
2022-09-28T20:20:36.014Z,0.00
2022-09-28T20:21:36.010Z,0.00
2022-09-28T20:22:36.014Z,0.00
2022-09-28T20:23:35.969Z,0.00
2022-09-28T20:24:35.927Z,0.00
2022-09-28T20:25:35.904Z,0.00
2022-09-28T20:26:35.876Z,0.00
2022-09-28T20:27:36.172Z,0.00
2022-09-28T20:28:35.841Z,0.00
2022-09-28T20:29:35.813Z,0.00
2022-09-28T20:30:35.819Z,0.00
2022-09-28T20:31:35.813Z,0.00
2022-09-28T20:32:35.749Z,0.00
2022-09-28T20:33:35.721Z,0.00
2022-09-28T20:34:35.770Z,0.00
2022-09-28T20:35:35.684Z,0.00
2022-09-28T20:36:35.687Z,0.00
2022-09-28T20:37:35.632Z,0.00
2022-09-28T20:38:35.647Z,0.00
2022-09-28T20:39:40.353Z,0.00
2022-09-28T20:40:35.610Z,0.00
2022-09-28T20:41:35.659Z,0.00
2022-09-28T20:42:35.522Z,0.00
2022-09-28T20:43:35.500Z,0.00
2022-09-28T20:44:35.480Z,0.00
2022-09-28T20:45:35.470Z,0.00
2022-09-28T20:46:35.733Z,0.00
2022-09-28T20:47:35.413Z,0.00
2022-09-28T20:48:35.394Z,0.00
2022-09-28T20:49:35.367Z,0.00
2022-09-28T20:50:35.351Z,0.00
2022-09-28T20:51:35.342Z,0.00
2022-09-28T20:52:35.304Z,0.00
2022-09-28T20:53:35.278Z,0.00
2022-09-28T20:54:35.269Z,0.00
2022-09-28T20:55:35.234Z,0.00
2022-09-28T20:56:35.211Z,0.00
2022-09-28T20:57:35.218Z,0.00
2022-09-28T20:58:35.163Z,0.00
2022-09-28T20:59:35.147Z,0.00
2022-09-28T21:00:35.129Z,0.00
2022-09-28T21:01:35.157Z,0.00
2022-09-28T21:02:35.105Z,0.00
2022-09-28T21:03:35.169Z,0.00
2022-09-28T21:04:35.034Z,0.00
2022-09-28T21:05:35.004Z,0.00
2022-09-28T21:06:34.987Z,0.00
2022-09-28T21:07:34.991Z,0.00
2022-09-28T21:08:34.937Z,0.00
2022-09-28T21:09:34.921Z,0.00
2022-09-28T21:10:34.896Z,0.00
2022-09-28T21:11:34.883Z,0.00
2022-09-28T21:12:34.874Z,0.00
2022-09-28T21:13:34.834Z,0.00
2022-09-28T21:14:34.806Z,0.00
2022-09-28T21:15:34.924Z,0.00
2022-09-28T21:16:34.765Z,0.00
2022-09-28T21:17:34.742Z,0.00
2022-09-28T21:18:34.718Z,0.00
2022-09-28T21:19:34.718Z,0.00
2022-09-28T21:20:34.867Z,0.00
2022-09-28T21:21:34.656Z,0.00
2022-09-28T21:22:34.625Z,0.00
2022-09-28T21:23:34.605Z,0.00
2022-09-28T21:24:34.620Z,0.00
2022-09-28T21:25:34.563Z,0.00
2022-09-28T21:26:35.097Z,0.00
2022-09-28T21:27:34.571Z,0.00
2022-09-28T21:28:34.498Z,0.00
2022-09-28T21:29:34.469Z,0.00
2022-09-28T21:30:34.450Z,0.00
2022-09-28T21:31:34.482Z,0.00
2022-09-28T21:32:34.416Z,0.00
2022-09-28T21:33:34.985Z,0.00
2022-09-28T21:34:34.391Z,0.00
2022-09-28T21:35:34.334Z,0.00
2022-09-28T21:36:34.315Z,0.00
2022-09-28T21:37:34.311Z,0.00
2022-09-28T21:38:34.267Z,0.00
2022-09-28T21:39:34.255Z,0.00
2022-09-28T21:40:34.295Z,0.00
2022-09-28T21:41:34.204Z,0.00
2022-09-28T21:42:34.202Z,0.00
2022-09-28T21:43:34.158Z,0.00
2022-09-28T21:44:34.139Z,0.00
2022-09-28T21:45:34.110Z,0.00
2022-09-28T21:46:34.289Z,0.00
2022-09-28T21:47:34.066Z,0.00
2022-09-28T21:48:34.070Z,0.00
2022-09-28T21:49:34.034Z,0.00
2022-09-28T21:50:34.002Z,0.00
2022-09-28T21:51:33.982Z,0.00
2022-09-28T21:52:34.158Z,0.00
2022-09-28T21:53:33.937Z,0.00
2022-09-28T21:54:33.932Z,0.00
2022-09-28T21:55:33.891Z,0.00
2022-09-28T21:56:34.530Z,0.00
2022-09-28T21:57:33.842Z,0.00
2022-09-28T21:58:33.841Z,0.00
2022-09-28T21:59:33.801Z,0.00
2022-09-28T22:00:33.778Z,0.00
2022-09-28T22:01:33.839Z,0.00
2022-09-28T22:02:33.765Z,0.00
2022-09-28T22:03:33.727Z,0.00
2022-09-28T22:04:33.691Z,0.00
2022-09-28T22:05:33.692Z,0.00
2022-09-28T22:06:33.648Z,0.00
2022-09-28T22:07:33.619Z,0.00
2022-09-28T22:08:33.593Z,0.00
2022-09-28T22:09:33.597Z,0.00
2022-09-28T22:10:33.555Z,0.00
2022-09-28T22:11:33.549Z,0.00
2022-09-28T22:12:33.517Z,0.00
2022-09-28T22:13:33.483Z,0.00
2022-09-28T22:14:33.482Z,0.00
2022-09-28T22:15:33.483Z,0.00
2022-09-28T22:16:33.465Z,0.00
2022-09-28T22:17:33.400Z,0.00
2022-09-28T22:18:33.373Z,0.00
2022-09-28T22:19:33.353Z,0.00
2022-09-28T22:20:33.324Z,0.00
2022-09-28T22:21:33.335Z,0.00
2022-09-28T22:22:33.286Z,0.00
2022-09-28T22:23:33.266Z,0.00
2022-09-28T22:24:33.241Z,0.00
2022-09-28T22:25:33.604Z,0.00
2022-09-28T22:26:33.215Z,0.00
2022-09-28T22:27:33.174Z,0.00
2022-09-28T22:28:33.155Z,0.00
2022-09-28T22:29:33.149Z,0.00
2022-09-28T22:30:33.102Z,0.00
2022-09-28T22:31:33.107Z,0.00
2022-09-28T22:32:33.092Z,0.00
2022-09-28T22:33:33.041Z,0.00
2022-09-28T22:34:33.015Z,0.00
2022-09-28T22:35:32.990Z,0.00
2022-09-28T22:36:32.967Z,0.00
2022-09-28T22:37:32.948Z,0.00
2022-09-28T22:38:32.960Z,0.00
2022-09-28T22:39:36.786Z,0.00
2022-09-28T22:40:32.968Z,0.00
2022-09-28T22:41:32.865Z,0.00
2022-09-28T22:42:32.855Z,0.00
2022-09-28T22:43:32.850Z,0.00
2022-09-28T22:44:32.790Z,0.00
2022-09-28T22:45:32.776Z,0.00
2022-09-28T22:46:32.831Z,0.00
2022-09-28T22:47:32.728Z,0.00
2022-09-28T22:48:32.725Z,0.00
2022-09-28T22:49:32.944Z,0.00
2022-09-28T22:50:33.498Z,0.00
2022-09-28T22:51:32.638Z,0.00
2022-09-28T22:52:32.681Z,0.00
2022-09-28T22:53:32.593Z,0.00
2022-09-28T22:54:32.571Z,0.00
2022-09-28T22:55:32.574Z,0.00
2022-09-28T22:56:32.546Z,0.00
2022-09-28T22:57:32.501Z,0.00
2022-09-28T22:58:32.482Z,0.00
2022-09-28T22:59:32.584Z,0.00
2022-09-28T23:00:32.438Z,0.00
2022-09-28T23:01:32.513Z,0.00
2022-09-28T23:02:32.409Z,0.00
2022-09-28T23:03:32.390Z,0.00
2022-09-28T23:04:32.352Z,0.00
2022-09-28T23:05:32.326Z,0.00
2022-09-28T23:06:32.326Z,0.00
2022-09-28T23:07:32.279Z,0.00
2022-09-28T23:08:32.276Z,0.00
2022-09-28T23:09:32.240Z,0.00
2022-09-28T23:10:32.211Z,0.00
2022-09-28T23:11:32.215Z,0.00
2022-09-28T23:12:32.171Z,0.00
2022-09-28T23:13:32.186Z,0.00
2022-09-28T23:22:29.009Z,0.00
2022-09-28T23:23:28.922Z,0.00
2022-09-28T23:24:28.890Z,0.00
2022-09-28T23:25:28.868Z,0.00
2022-09-28T23:26:28.856Z,0.00
2022-09-28T23:27:28.940Z,0.00
2022-09-28T23:28:28.833Z,0.00
2022-09-28T23:29:28.836Z,0.00
2022-09-28T23:30:28.776Z,0.00
2022-09-28T23:31:28.800Z,0.00
2022-09-28T23:32:32.007Z,0.00
2022-09-28T23:33:28.716Z,0.00
2022-09-28T23:34:28.677Z,0.00
2022-09-28T23:35:28.687Z,0.00
2022-09-28T23:36:28.634Z,0.00
2022-09-28T23:37:28.597Z,0.00
2022-09-28T23:38:28.608Z,0.00
2022-09-28T23:39:28.565Z,0.00
2022-09-28T23:40:28.592Z,0.00
2022-09-28T23:41:28.518Z,0.00
2022-09-28T23:42:28.496Z,0.00
2022-09-28T23:43:28.473Z,0.00
2022-09-28T23:44:28.448Z,0.00
2022-09-28T23:45:28.447Z,0.00
2022-09-28T23:46:28.479Z,0.00
2022-09-28T23:47:28.384Z,0.00
2022-09-28T23:48:28.361Z,0.00
2022-09-28T23:49:28.336Z,0.00
2022-09-28T23:50:28.322Z,0.00
2022-09-28T23:51:28.319Z,0.00
2022-09-28T23:52:28.274Z,0.00
2022-09-28T23:53:28.273Z,0.00
2022-09-28T23:54:28.226Z,0.00
2022-09-28T23:55:28.242Z,0.00
2022-09-28T23:56:28.175Z,0.00
2022-09-28T23:57:28.191Z,0.00
2022-09-28T23:58:28.137Z,0.00
2022-09-28T23:59:28.117Z,0.00
